sensor_id;sensor_type;location;lat;lon;timestamp;temperature;humidity
16301;DHT22;8258;51.020;4.248;2023-07-13T00:04:57;15.60;99.90
16301;DHT22;8258;51.020;4.248;2023-07-13T01:12:07;14.90;99.90
16301;DHT22;8258;51.020;4.248;2023-07-13T01:14:34;14.90;99.90
16301;DHT22;8258;51.020;4.248;2023-07-13T01:17:01;14.90;99.90
16301;DHT22;8258;51.020;4.248;2023-07-13T01:19:39;14.90;99.90
16301;DHT22;8258;51.020;4.248;2023-07-13T01:22:11;14.90;99.90
16301;DHT22;8258;51.020;4.248;2023-07-13T01:24:39;14.90;99.90
16301;DHT22;8258;51.020;4.248;2023-07-13T01:27:07;14.90;99.90
16301;DHT22;8258;51.020;4.248;2023-07-13T01:29:36;14.80;99.90
16301;DHT22;8258;51.020;4.248;2023-07-13T01:32:08;14.70;99.90
16301;DHT22;8258;51.020;4.248;2023-07-13T01:34:35;14.70;99.90
16301;DHT22;8258;51.020;4.248;2023-07-13T01:37:04;14.60;99.90
16301;DHT22;8258;51.020;4.248;2023-07-13T01:39:33;14.60;99.90
16301;DHT22;8258;51.020;4.248;2023-07-13T01:42:00;14.60;99.90
16301;DHT22;8258;51.020;4.248;2023-07-13T01:44:27;14.50;99.90
16301;DHT22;8258;51.020;4.248;2023-07-13T01:46:54;14.50;99.90
16301;DHT22;8258;51.020;4.248;2023-07-13T01:49:20;14.40;99.90
16301;DHT22;8258;51.020;4.248;2023-07-13T01:51:48;14.40;99.90
16301;DHT22;8258;51.020;4.248;2023-07-13T01:54:15;14.40;99.90
16301;DHT22;8258;51.020;4.248;2023-07-13T01:56:43;14.40;99.90
16301;DHT22;8258;51.020;4.248;2023-07-13T01:59:10;14.40;99.90
16301;DHT22;8258;51.020;4.248;2023-07-13T02:01:37;14.40;99.90
16301;DHT22;8258;51.020;4.248;2023-07-13T02:04:04;14.40;99.90
16301;DHT22;8258;51.020;4.248;2023-07-13T02:06:31;14.40;99.90
16301;DHT22;8258;51.020;4.248;2023-07-13T02:08:58;14.30;99.90
16301;DHT22;8258;51.020;4.248;2023-07-13T02:11:25;14.30;99.90
16301;DHT22;8258;51.020;4.248;2023-07-13T02:13:59;14.20;99.90
16301;DHT22;8258;51.020;4.248;2023-07-13T02:16:25;14.20;99.90
16301;DHT22;8258;51.020;4.248;2023-07-13T02:18:52;14.20;99.90
16301;DHT22;8258;51.020;4.248;2023-07-13T02:21:19;14.10;99.90
16301;DHT22;8258;51.020;4.248;2023-07-13T02:23:46;14.10;99.90
16301;DHT22;8258;51.020;4.248;2023-07-13T02:26:13;14.10;99.90
16301;DHT22;8258;51.020;4.248;2023-07-13T02:28:40;14.10;99.90
16301;DHT22;8258;51.020;4.248;2023-07-13T02:31:11;14.10;99.90
16301;DHT22;8258;51.020;4.248;2023-07-13T02:33:38;14.20;99.90
16301;DHT22;8258;51.020;4.248;2023-07-13T02:36:05;14.20;99.90
16301;DHT22;8258;51.020;4.248;2023-07-13T02:38:33;14.30;99.90
16301;DHT22;8258;51.020;4.248;2023-07-13T02:41:00;14.30;99.90
16301;DHT22;8258;51.020;4.248;2023-07-13T02:43:27;14.30;99.90
16301;DHT22;8258;51.020;4.248;2023-07-13T02:45:55;14.30;99.90
16301;DHT22;8258;51.020;4.248;2023-07-13T02:48:27;14.40;99.90
16301;DHT22;8258;51.020;4.248;2023-07-13T02:50:54;14.50;99.90
16301;DHT22;8258;51.020;4.248;2023-07-13T02:53:21;14.50;99.90
16301;DHT22;8258;51.020;4.248;2023-07-13T02:55:48;14.70;99.90
16301;DHT22;8258;51.020;4.248;2023-07-13T02:58:15;14.70;99.90
16301;DHT22;8258;51.020;4.248;2023-07-13T03:00:42;14.70;99.90
16301;DHT22;8258;51.020;4.248;2023-07-13T03:03:12;14.80;99.90
16301;DHT22;8258;51.020;4.248;2023-07-13T03:05:41;14.80;99.90
16301;DHT22;8258;51.020;4.248;2023-07-13T03:08:09;14.80;99.90
16301;DHT22;8258;51.020;4.248;2023-07-13T03:10:36;14.80;99.90
16301;DHT22;8258;51.020;4.248;2023-07-13T03:13:03;14.80;99.90
16301;DHT22;8258;51.020;4.248;2023-07-13T03:15:30;14.80;99.90
16301;DHT22;8258;51.020;4.248;2023-07-13T03:17:57;14.70;99.90
16301;DHT22;8258;51.020;4.248;2023-07-13T03:20:24;14.70;99.90
16301;DHT22;8258;51.020;4.248;2023-07-13T03:22:52;14.70;99.90
16301;DHT22;8258;51.020;4.248;2023-07-13T03:25:19;14.70;99.90
16301;DHT22;8258;51.020;4.248;2023-07-13T03:27:46;14.70;99.90
16301;DHT22;8258;51.020;4.248;2023-07-13T03:30:13;14.70;99.90
16301;DHT22;8258;51.020;4.248;2023-07-13T03:32:40;14.70;99.90
16301;DHT22;8258;51.020;4.248;2023-07-13T03:35:09;14.80;99.90
16301;DHT22;8258;51.020;4.248;2023-07-13T03:37:36;14.80;99.90
16301;DHT22;8258;51.020;4.248;2023-07-13T03:40:10;14.80;99.90
16301;DHT22;8258;51.020;4.248;2023-07-13T03:42:38;14.80;99.90
16301;DHT22;8258;51.020;4.248;2023-07-13T03:45:06;14.90;99.90
16301;DHT22;8258;51.020;4.248;2023-07-13T03:47:33;14.90;99.90
16301;DHT22;8258;51.020;4.248;2023-07-13T03:50:00;14.90;99.90
16301;DHT22;8258;51.020;4.248;2023-07-13T03:52:27;14.90;99.90
16301;DHT22;8258;51.020;4.248;2023-07-13T03:54:54;14.90;99.90
16301;DHT22;8258;51.020;4.248;2023-07-13T03:57:22;14.90;99.90
16301;DHT22;8258;51.020;4.248;2023-07-13T03:59:49;14.90;99.90
16301;DHT22;8258;51.020;4.248;2023-07-13T04:02:16;15.00;99.90
16301;DHT22;8258;51.020;4.248;2023-07-13T04:04:43;15.00;99.90
16301;DHT22;8258;51.020;4.248;2023-07-13T04:07:10;14.90;99.90
16301;DHT22;8258;51.020;4.248;2023-07-13T04:09:37;15.00;99.90
16301;DHT22;8258;51.020;4.248;2023-07-13T04:12:05;15.00;99.90
16301;DHT22;8258;51.020;4.248;2023-07-13T04:14:34;15.00;99.90
16301;DHT22;8258;51.020;4.248;2023-07-13T04:17:01;15.10;99.90
16301;DHT22;8258;51.020;4.248;2023-07-13T04:19:28;15.10;99.90
16301;DHT22;8258;51.020;4.248;2023-07-13T04:21:55;15.10;99.90
16301;DHT22;8258;51.020;4.248;2023-07-13T04:24:21;15.10;99.90
16301;DHT22;8258;51.020;4.248;2023-07-13T04:26:48;15.10;99.90
16301;DHT22;8258;51.020;4.248;2023-07-13T04:29:15;15.10;99.90
16301;DHT22;8258;51.020;4.248;2023-07-13T04:31:44;15.20;99.90
16301;DHT22;8258;51.020;4.248;2023-07-13T04:34:10;15.20;99.90
16301;DHT22;8258;51.020;4.248;2023-07-13T04:36:37;15.20;99.90
16301;DHT22;8258;51.020;4.248;2023-07-13T04:39:04;15.30;99.90
16301;DHT22;8258;51.020;4.248;2023-07-13T04:41:31;15.40;99.90
16301;DHT22;8258;51.020;4.248;2023-07-13T04:43:59;15.40;99.90
16301;DHT22;8258;51.020;4.248;2023-07-13T04:46:25;15.50;99.90
16301;DHT22;8258;51.020;4.248;2023-07-13T04:48:54;15.50;99.90
16301;DHT22;8258;51.020;4.248;2023-07-13T04:51:21;15.60;99.90
16301;DHT22;8258;51.020;4.248;2023-07-13T04:53:48;15.60;99.90
16301;DHT22;8258;51.020;4.248;2023-07-13T04:56:15;15.70;99.90
16301;DHT22;8258;51.020;4.248;2023-07-13T04:58:42;15.70;99.90
16301;DHT22;8258;51.020;4.248;2023-07-13T05:01:09;15.70;99.90
16301;DHT22;8258;51.020;4.248;2023-07-13T05:03:36;15.70;99.90
16301;DHT22;8258;51.020;4.248;2023-07-13T05:06:06;15.70;99.90
16301;DHT22;8258;51.020;4.248;2023-07-13T05:08:35;15.70;99.90
16301;DHT22;8258;51.020;4.248;2023-07-13T05:11:04;15.80;99.90
16301;DHT22;8258;51.020;4.248;2023-07-13T05:13:32;15.80;99.90
16301;DHT22;8258;51.020;4.248;2023-07-13T05:16:00;15.80;99.90
16301;DHT22;8258;51.020;4.248;2023-07-13T05:18:29;15.80;99.90
16301;DHT22;8258;51.020;4.248;2023-07-13T05:21:00;15.80;99.90
16301;DHT22;8258;51.020;4.248;2023-07-13T05:23:29;15.90;99.90
16301;DHT22;8258;51.020;4.248;2023-07-13T05:25:56;15.90;99.90
16301;DHT22;8258;51.020;4.248;2023-07-13T05:28:24;16.00;99.90
16301;DHT22;8258;51.020;4.248;2023-07-13T05:30:51;16.00;99.90
16301;DHT22;8258;51.020;4.248;2023-07-13T05:33:20;16.00;99.90
16301;DHT22;8258;51.020;4.248;2023-07-13T05:35:47;16.10;99.90
16301;DHT22;8258;51.020;4.248;2023-07-13T05:38:14;16.00;99.90
16301;DHT22;8258;51.020;4.248;2023-07-13T05:40:44;16.10;99.90
16301;DHT22;8258;51.020;4.248;2023-07-13T05:43:11;16.20;99.90
16301;DHT22;8258;51.020;4.248;2023-07-13T05:45:38;16.20;99.90
16301;DHT22;8258;51.020;4.248;2023-07-13T05:48:06;16.20;99.90
16301;DHT22;8258;51.020;4.248;2023-07-13T05:50:33;16.30;99.90
16301;DHT22;8258;51.020;4.248;2023-07-13T05:53:00;16.30;99.90
16301;DHT22;8258;51.020;4.248;2023-07-13T05:55:27;16.30;99.90
16301;DHT22;8258;51.020;4.248;2023-07-13T05:57:55;16.30;99.90
16301;DHT22;8258;51.020;4.248;2023-07-13T06:00:23;16.30;99.90
16301;DHT22;8258;51.020;4.248;2023-07-13T06:02:50;16.40;99.90
16301;DHT22;8258;51.020;4.248;2023-07-13T06:05:17;16.50;99.90
16301;DHT22;8258;51.020;4.248;2023-07-13T06:07:44;16.60;99.90
16301;DHT22;8258;51.020;4.248;2023-07-13T06:10:11;16.70;99.90
16301;DHT22;8258;51.020;4.248;2023-07-13T06:12:38;16.80;99.90
16301;DHT22;8258;51.020;4.248;2023-07-13T06:15:08;16.90;99.90
16301;DHT22;8258;51.020;4.248;2023-07-13T06:17:35;17.10;99.90
16301;DHT22;8258;51.020;4.248;2023-07-13T06:20:02;17.20;99.90
16301;DHT22;8258;51.020;4.248;2023-07-13T06:22:29;17.30;99.90
16301;DHT22;8258;51.020;4.248;2023-07-13T06:24:56;17.30;99.90
16301;DHT22;8258;51.020;4.248;2023-07-13T06:27:23;17.40;99.90
16301;DHT22;8258;51.020;4.248;2023-07-13T06:29:50;17.50;99.90
16301;DHT22;8258;51.020;4.248;2023-07-13T06:32:18;17.70;99.90
16301;DHT22;8258;51.020;4.248;2023-07-13T06:34:45;17.80;99.90
16301;DHT22;8258;51.020;4.248;2023-07-13T06:37:12;17.70;99.90
16301;DHT22;8258;51.020;4.248;2023-07-13T06:39:39;17.80;99.90
16301;DHT22;8258;51.020;4.248;2023-07-13T06:42:06;18.00;99.90
16301;DHT22;8258;51.020;4.248;2023-07-13T06:44:33;17.90;99.90
16301;DHT22;8258;51.020;4.248;2023-07-13T06:47:00;17.90;99.90
16301;DHT22;8258;51.020;4.248;2023-07-13T06:49:29;18.10;99.90
16301;DHT22;8258;51.020;4.248;2023-07-13T06:51:56;18.30;99.90
16301;DHT22;8258;51.020;4.248;2023-07-13T06:54:23;18.60;99.90
16301;DHT22;8258;51.020;4.248;2023-07-13T06:56:50;18.70;99.90
16301;DHT22;8258;51.020;4.248;2023-07-13T06:59:18;18.60;99.90
16301;DHT22;8258;51.020;4.248;2023-07-13T07:01:45;18.50;99.90
16301;DHT22;8258;51.020;4.248;2023-07-13T07:06:48;18.50;99.90
16301;DHT22;8258;51.020;4.248;2023-07-13T07:09:15;18.70;99.90
16301;DHT22;8258;51.020;4.248;2023-07-13T07:11:44;18.80;99.90
16301;DHT22;8258;51.020;4.248;2023-07-13T07:14:11;18.80;99.90
16301;DHT22;8258;51.020;4.248;2023-07-13T07:16:38;18.90;99.90
16301;DHT22;8258;51.020;4.248;2023-07-13T07:19:05;18.80;99.90
16301;DHT22;8258;51.020;4.248;2023-07-13T07:24:08;19.10;99.90
16301;DHT22;8258;51.020;4.248;2023-07-13T07:26:35;19.70;99.90
16301;DHT22;8258;51.020;4.248;2023-07-13T07:29:02;20.10;99.90
16301;DHT22;8258;51.020;4.248;2023-07-13T07:31:29;20.60;99.90
16301;DHT22;8258;51.020;4.248;2023-07-13T07:33:56;21.00;99.90
16301;DHT22;8258;51.020;4.248;2023-07-13T07:36:23;21.40;99.90
16301;DHT22;8258;51.020;4.248;2023-07-13T07:38:50;22.30;99.90
16301;DHT22;8258;51.020;4.248;2023-07-13T07:41:18;22.70;99.90
16301;DHT22;8258;51.020;4.248;2023-07-13T07:43:45;22.80;99.90
16301;DHT22;8258;51.020;4.248;2023-07-13T07:46:12;22.10;99.90
16301;DHT22;8258;51.020;4.248;2023-07-13T07:48:39;21.30;99.90
16301;DHT22;8258;51.020;4.248;2023-07-13T07:51:06;21.60;99.90
16301;DHT22;8258;51.020;4.248;2023-07-13T07:53:32;22.60;99.90
16301;DHT22;8258;51.020;4.248;2023-07-13T07:55:59;22.90;99.90
16301;DHT22;8258;51.020;4.248;2023-07-13T07:58:27;23.20;99.90
16301;DHT22;8258;51.020;4.248;2023-07-13T08:01:01;23.50;99.90
16301;DHT22;8258;51.020;4.248;2023-07-13T08:03:28;23.20;99.90
16301;DHT22;8258;51.020;4.248;2023-07-13T08:05:55;22.80;99.90
16301;DHT22;8258;51.020;4.248;2023-07-13T08:08:22;23.20;99.90
16301;DHT22;8258;51.020;4.248;2023-07-13T08:10:52;23.20;99.90
16301;DHT22;8258;51.020;4.248;2023-07-13T08:13:19;23.40;99.90
16301;DHT22;8258;51.020;4.248;2023-07-13T08:15:48;24.00;99.90
16301;DHT22;8258;51.020;4.248;2023-07-13T08:18:15;24.10;99.90
16301;DHT22;8258;51.020;4.248;2023-07-13T08:20:43;23.70;99.90
16301;DHT22;8258;51.020;4.248;2023-07-13T08:23:10;23.70;99.90
16301;DHT22;8258;51.020;4.248;2023-07-13T08:25:37;24.50;99.90
16301;DHT22;8258;51.020;4.248;2023-07-13T08:28:04;24.80;99.90
16301;DHT22;8258;51.020;4.248;2023-07-13T08:30:32;25.70;99.90
16301;DHT22;8258;51.020;4.248;2023-07-13T08:33:00;25.90;99.90
16301;DHT22;8258;51.020;4.248;2023-07-13T08:35:27;23.80;99.90
16301;DHT22;8258;51.020;4.248;2023-07-13T08:37:54;22.80;99.90
16301;DHT22;8258;51.020;4.248;2023-07-13T08:40:25;23.10;99.90
16301;DHT22;8258;51.020;4.248;2023-07-13T08:42:54;23.50;99.90
16301;DHT22;8258;51.020;4.248;2023-07-13T08:45:24;23.90;99.90
16301;DHT22;8258;51.020;4.248;2023-07-13T08:47:56;24.30;99.90
16301;DHT22;8258;51.020;4.248;2023-07-13T08:50:29;24.10;99.90
16301;DHT22;8258;51.020;4.248;2023-07-13T08:52:57;24.00;99.90
16301;DHT22;8258;51.020;4.248;2023-07-13T08:55:28;24.00;99.90
16301;DHT22;8258;51.020;4.248;2023-07-13T08:58:01;23.60;99.90
16301;DHT22;8258;51.020;4.248;2023-07-13T09:00:36;23.80;99.90
16301;DHT22;8258;51.020;4.248;2023-07-13T09:03:12;24.50;99.90
16301;DHT22;8258;51.020;4.248;2023-07-13T09:05:49;24.00;99.90
16301;DHT22;8258;51.020;4.248;2023-07-13T09:08:33;23.10;99.90
16301;DHT22;8258;51.020;4.248;2023-07-13T09:11:12;23.30;99.90
16301;DHT22;8258;51.020;4.248;2023-07-13T09:13:50;24.20;99.90
16301;DHT22;8258;51.020;4.248;2023-07-13T09:16:21;25.00;99.90
16301;DHT22;8258;51.020;4.248;2023-07-13T09:18:50;25.20;99.90
16301;DHT22;8258;51.020;4.248;2023-07-13T09:21:23;25.00;99.90
16301;DHT22;8258;51.020;4.248;2023-07-13T09:23:53;25.70;99.90
16301;DHT22;8258;51.020;4.248;2023-07-13T09:26:23;26.30;99.90
16301;DHT22;8258;51.020;4.248;2023-07-13T09:28:53;26.30;99.90
16301;DHT22;8258;51.020;4.248;2023-07-13T09:31:24;26.00;99.90
16301;DHT22;8258;51.020;4.248;2023-07-13T09:33:52;26.40;99.90
16301;DHT22;8258;51.020;4.248;2023-07-13T09:36:24;27.00;99.90
16301;DHT22;8258;51.020;4.248;2023-07-13T09:38:59;27.20;99.90
16301;DHT22;8258;51.020;4.248;2023-07-13T09:41:37;27.20;99.90
16301;DHT22;8258;51.020;4.248;2023-07-13T09:44:08;27.60;99.30
16301;DHT22;8258;51.020;4.248;2023-07-13T09:46:37;27.20;99.90
16301;DHT22;8258;51.020;4.248;2023-07-13T09:49:04;27.20;99.30
16301;DHT22;8258;51.020;4.248;2023-07-13T09:51:32;27.00;97.70
16301;DHT22;8258;51.020;4.248;2023-07-13T09:54:00;26.60;99.10
16301;DHT22;8258;51.020;4.248;2023-07-13T09:56:29;26.60;99.00
16301;DHT22;8258;51.020;4.248;2023-07-13T09:58:56;26.00;99.90
16301;DHT22;8258;51.020;4.248;2023-07-13T10:01:34;25.20;99.90
16301;DHT22;8258;51.020;4.248;2023-07-13T10:04:02;25.50;99.90
16301;DHT22;8258;51.020;4.248;2023-07-13T10:06:38;26.90;99.70
16301;DHT22;8258;51.020;4.248;2023-07-13T10:09:07;27.20;98.40
16301;DHT22;8258;51.020;4.248;2023-07-13T10:11:35;26.20;99.40
16301;DHT22;8258;51.020;4.248;2023-07-13T10:14:11;25.10;99.90
16301;DHT22;8258;51.020;4.248;2023-07-13T10:16:41;24.50;99.90
16301;DHT22;8258;51.020;4.248;2023-07-13T10:19:14;24.10;99.90
16301;DHT22;8258;51.020;4.248;2023-07-13T10:21:56;23.70;99.90
16301;DHT22;8258;51.020;4.248;2023-07-13T10:24:26;24.00;99.90
16301;DHT22;8258;51.020;4.248;2023-07-13T10:26:56;25.20;99.90
16301;DHT22;8258;51.020;4.248;2023-07-13T10:29:27;26.10;99.90
16301;DHT22;8258;51.020;4.248;2023-07-13T10:31:54;27.30;99.60
16301;DHT22;8258;51.020;4.248;2023-07-13T10:34:22;28.30;96.80
16301;DHT22;8258;51.020;4.248;2023-07-13T10:36:51;28.80;95.60
16301;DHT22;8258;51.020;4.248;2023-07-13T10:39:20;29.00;94.40
16301;DHT22;8258;51.020;4.248;2023-07-13T10:41:52;29.10;92.80
16301;DHT22;8258;51.020;4.248;2023-07-13T10:44:23;29.30;91.40
16301;DHT22;8258;51.020;4.248;2023-07-13T10:46:53;28.30;92.10
16301;DHT22;8258;51.020;4.248;2023-07-13T10:49:22;26.80;94.50
16301;DHT22;8258;51.020;4.248;2023-07-13T10:51:51;25.60;97.00
16301;DHT22;8258;51.020;4.248;2023-07-13T10:54:21;25.80;98.60
16301;DHT22;8258;51.020;4.248;2023-07-13T10:56:53;27.00;94.60
16301;DHT22;8258;51.020;4.248;2023-07-13T10:59:33;27.60;94.30
16301;DHT22;8258;51.020;4.248;2023-07-13T11:02:10;27.70;93.10
16301;DHT22;8258;51.020;4.248;2023-07-13T11:04:42;27.50;91.20
16301;DHT22;8258;51.020;4.248;2023-07-13T11:07:20;27.80;93.10
16301;DHT22;8258;51.020;4.248;2023-07-13T11:09:50;27.40;93.50
16301;DHT22;8258;51.020;4.248;2023-07-13T11:15:12;25.50;99.90
16301;DHT22;8258;51.020;4.248;2023-07-13T11:17:50;25.50;99.90
16301;DHT22;8258;51.020;4.248;2023-07-13T11:20:23;26.80;98.10
16301;DHT22;8258;51.020;4.248;2023-07-13T11:23:17;26.30;99.00
16301;DHT22;8258;51.020;4.248;2023-07-13T11:25:45;25.50;99.90
16301;DHT22;8258;51.020;4.248;2023-07-13T11:28:22;24.40;99.90
16301;DHT22;8258;51.020;4.248;2023-07-13T11:31:15;24.50;99.90
16301;DHT22;8258;51.020;4.248;2023-07-13T11:33:56;25.70;99.90
16301;DHT22;8258;51.020;4.248;2023-07-13T11:36:29;26.50;96.60
16301;DHT22;8258;51.020;4.248;2023-07-13T11:39:02;25.70;98.70
16301;DHT22;8258;51.020;4.248;2023-07-13T11:41:32;24.50;99.90
16301;DHT22;8258;51.020;4.248;2023-07-13T11:44:11;22.70;99.90
16301;DHT22;8258;51.020;4.248;2023-07-13T11:46:38;21.80;99.90
16301;DHT22;8258;51.020;4.248;2023-07-13T11:49:07;21.20;99.90
16301;DHT22;8258;51.020;4.248;2023-07-13T11:51:35;20.90;99.90
16301;DHT22;8258;51.020;4.248;2023-07-13T11:54:06;20.70;99.90
16301;DHT22;8258;51.020;4.248;2023-07-13T11:56:33;20.70;99.90
16301;DHT22;8258;51.020;4.248;2023-07-13T11:59:05;20.50;99.90
16301;DHT22;8258;51.020;4.248;2023-07-13T12:01:34;20.30;99.90
16301;DHT22;8258;51.020;4.248;2023-07-13T12:04:04;20.30;99.90
16301;DHT22;8258;51.020;4.248;2023-07-13T12:06:33;20.10;99.90
16301;DHT22;8258;51.020;4.248;2023-07-13T12:09:12;20.00;99.90
16301;DHT22;8258;51.020;4.248;2023-07-13T12:11:41;19.90;99.90
16301;DHT22;8258;51.020;4.248;2023-07-13T12:14:14;19.80;99.90
16301;DHT22;8258;51.020;4.248;2023-07-13T12:16:42;19.80;99.90
16301;DHT22;8258;51.020;4.248;2023-07-13T12:19:17;19.90;99.90
16301;DHT22;8258;51.020;4.248;2023-07-13T12:21:45;19.80;99.90
16301;DHT22;8258;51.020;4.248;2023-07-13T12:24:16;19.80;99.90
16301;DHT22;8258;51.020;4.248;2023-07-13T12:26:44;20.00;99.90
16301;DHT22;8258;51.020;4.248;2023-07-13T12:29:16;20.00;99.90
16301;DHT22;8258;51.020;4.248;2023-07-13T12:31:48;20.00;99.90
16301;DHT22;8258;51.020;4.248;2023-07-13T12:34:18;20.00;99.90
16301;DHT22;8258;51.020;4.248;2023-07-13T12:36:49;20.10;99.90
16301;DHT22;8258;51.020;4.248;2023-07-13T12:39:20;20.40;99.90
16301;DHT22;8258;51.020;4.248;2023-07-13T12:41:49;20.90;99.90
16301;DHT22;8258;51.020;4.248;2023-07-13T12:44:19;21.00;99.90
16301;DHT22;8258;51.020;4.248;2023-07-13T12:46:56;21.20;99.90
16301;DHT22;8258;51.020;4.248;2023-07-13T12:49:29;21.90;99.90
16301;DHT22;8258;51.020;4.248;2023-07-13T12:51:59;22.20;99.90
16301;DHT22;8258;51.020;4.248;2023-07-13T12:54:29;22.00;99.90
16301;DHT22;8258;51.020;4.248;2023-07-13T12:56:58;22.20;99.90
16301;DHT22;8258;51.020;4.248;2023-07-13T12:59:31;22.60;99.90
16301;DHT22;8258;51.020;4.248;2023-07-13T13:02:02;23.30;99.90
16301;DHT22;8258;51.020;4.248;2023-07-13T13:04:30;23.30;99.90
16301;DHT22;8258;51.020;4.248;2023-07-13T13:07:01;23.40;99.90
16301;DHT22;8258;51.020;4.248;2023-07-13T13:09:30;23.70;99.90
16301;DHT22;8258;51.020;4.248;2023-07-13T13:11:57;23.70;99.90
16301;DHT22;8258;51.020;4.248;2023-07-13T13:14:24;23.50;99.90
16301;DHT22;8258;51.020;4.248;2023-07-13T13:16:52;23.70;99.90
16301;DHT22;8258;51.020;4.248;2023-07-13T13:19:21;23.90;99.90
16301;DHT22;8258;51.020;4.248;2023-07-13T13:21:49;23.80;99.90
16301;DHT22;8258;51.020;4.248;2023-07-13T13:24:20;23.70;99.90
16301;DHT22;8258;51.020;4.248;2023-07-13T13:26:50;23.70;99.90
16301;DHT22;8258;51.020;4.248;2023-07-13T13:29:19;24.60;99.90
16301;DHT22;8258;51.020;4.248;2023-07-13T13:31:47;25.90;99.90
16301;DHT22;8258;51.020;4.248;2023-07-13T13:34:16;26.50;99.90
16301;DHT22;8258;51.020;4.248;2023-07-13T13:36:44;26.00;99.90
16301;DHT22;8258;51.020;4.248;2023-07-13T13:39:19;25.90;99.90
16301;DHT22;8258;51.020;4.248;2023-07-13T13:41:48;26.30;99.90
16301;DHT22;8258;51.020;4.248;2023-07-13T13:44:16;25.80;99.90
16301;DHT22;8258;51.020;4.248;2023-07-13T13:46:45;25.40;99.90
16301;DHT22;8258;51.020;4.248;2023-07-13T13:49:15;24.90;99.90
16301;DHT22;8258;51.020;4.248;2023-07-13T13:51:43;24.10;99.90
16301;DHT22;8258;51.020;4.248;2023-07-13T13:54:14;23.80;99.90
16301;DHT22;8258;51.020;4.248;2023-07-13T13:56:42;23.80;99.90
16301;DHT22;8258;51.020;4.248;2023-07-13T13:59:11;23.50;99.90
16301;DHT22;8258;51.020;4.248;2023-07-13T14:01:39;23.40;99.90
16301;DHT22;8258;51.020;4.248;2023-07-13T14:04:06;23.60;99.90
16301;DHT22;8258;51.020;4.248;2023-07-13T14:06:35;23.60;99.90
16301;DHT22;8258;51.020;4.248;2023-07-13T14:09:02;23.50;99.90
16301;DHT22;8258;51.020;4.248;2023-07-13T14:11:31;23.40;99.90
16301;DHT22;8258;51.020;4.248;2023-07-13T14:14:00;23.30;99.90
16301;DHT22;8258;51.020;4.248;2023-07-13T14:16:32;23.30;99.90
16301;DHT22;8258;51.020;4.248;2023-07-13T14:19:00;23.20;99.90
16301;DHT22;8258;51.020;4.248;2023-07-13T14:21:28;23.30;99.90
16301;DHT22;8258;51.020;4.248;2023-07-13T14:23:56;23.20;99.90
16301;DHT22;8258;51.020;4.248;2023-07-13T14:26:25;23.00;99.90
16301;DHT22;8258;51.020;4.248;2023-07-13T14:28:55;23.20;99.90
16301;DHT22;8258;51.020;4.248;2023-07-13T14:31:25;23.90;99.90
16301;DHT22;8258;51.020;4.248;2023-07-13T14:33:55;25.80;99.90
16301;DHT22;8258;51.020;4.248;2023-07-13T14:36:28;27.60;99.90
16301;DHT22;8258;51.020;4.248;2023-07-13T14:38:57;28.70;99.90
16301;DHT22;8258;51.020;4.248;2023-07-13T14:41:24;29.00;99.90
16301;DHT22;8258;51.020;4.248;2023-07-13T14:43:52;29.10;99.40
16301;DHT22;8258;51.020;4.248;2023-07-13T14:46:27;28.50;99.10
16301;DHT22;8258;51.020;4.248;2023-07-13T14:49:03;28.40;98.60
16301;DHT22;8258;51.020;4.248;2023-07-13T14:51:31;28.50;99.50
16301;DHT22;8258;51.020;4.248;2023-07-13T14:54:01;29.10;98.50
16301;DHT22;8258;51.020;4.248;2023-07-13T14:56:28;29.70;96.90
16301;DHT22;8258;51.020;4.248;2023-07-13T14:58:55;29.20;95.60
16301;DHT22;8258;51.020;4.248;2023-07-13T15:01:23;29.50;96.00
16301;DHT22;8258;51.020;4.248;2023-07-13T15:03:51;29.60;95.10
16301;DHT22;8258;51.020;4.248;2023-07-13T15:06:20;29.40;94.30
16301;DHT22;8258;51.020;4.248;2023-07-13T15:08:47;29.50;93.90
16301;DHT22;8258;51.020;4.248;2023-07-13T15:11:16;29.20;94.80
16301;DHT22;8258;51.020;4.248;2023-07-13T15:13:43;29.30;93.50
16301;DHT22;8258;51.020;4.248;2023-07-13T15:16:22;28.30;95.00
16301;DHT22;8258;51.020;4.248;2023-07-13T15:18:50;27.10;96.90
16301;DHT22;8258;51.020;4.248;2023-07-13T15:21:22;26.40;99.20
16301;DHT22;8258;51.020;4.248;2023-07-13T15:23:50;25.70;99.90
16301;DHT22;8258;51.020;4.248;2023-07-13T15:26:18;25.30;99.90
16301;DHT22;8258;51.020;4.248;2023-07-13T15:28:46;25.50;99.90
16301;DHT22;8258;51.020;4.248;2023-07-13T15:31:19;25.70;99.90
16301;DHT22;8258;51.020;4.248;2023-07-13T15:33:47;25.50;99.90
16301;DHT22;8258;51.020;4.248;2023-07-13T15:36:16;25.00;99.90
16301;DHT22;8258;51.020;4.248;2023-07-13T15:38:45;24.70;99.90
16301;DHT22;8258;51.020;4.248;2023-07-13T15:41:17;25.00;99.90
16301;DHT22;8258;51.020;4.248;2023-07-13T15:43:45;25.00;99.90
16301;DHT22;8258;51.020;4.248;2023-07-13T15:46:13;26.00;99.90
16301;DHT22;8258;51.020;4.248;2023-07-13T15:48:40;27.70;97.50
16301;DHT22;8258;51.020;4.248;2023-07-13T15:51:12;28.30;96.50
16301;DHT22;8258;51.020;4.248;2023-07-13T15:53:41;27.70;90.70
16301;DHT22;8258;51.020;4.248;2023-07-13T15:56:17;26.80;91.60
16301;DHT22;8258;51.020;4.248;2023-07-13T15:58:44;27.10;90.10
16301;DHT22;8258;51.020;4.248;2023-07-13T16:01:12;28.20;90.30
16301;DHT22;8258;51.020;4.248;2023-07-13T16:03:40;28.30;81.90
16301;DHT22;8258;51.020;4.248;2023-07-13T16:06:13;27.10;84.00
16301;DHT22;8258;51.020;4.248;2023-07-13T16:08:41;26.00;89.20
16301;DHT22;8258;51.020;4.248;2023-07-13T16:11:17;25.60;90.50
16301;DHT22;8258;51.020;4.248;2023-07-13T16:13:45;25.40;91.90
16301;DHT22;8258;51.020;4.248;2023-07-13T16:16:12;25.20;92.40
16301;DHT22;8258;51.020;4.248;2023-07-13T16:18:40;25.40;91.80
16301;DHT22;8258;51.020;4.248;2023-07-13T16:21:11;26.20;91.10
16301;DHT22;8258;51.020;4.248;2023-07-13T16:23:38;26.10;91.60
16301;DHT22;8258;51.020;4.248;2023-07-13T16:26:26;25.90;92.10
16301;DHT22;8258;51.020;4.248;2023-07-13T16:28:56;25.50;92.90
16301;DHT22;8258;51.020;4.248;2023-07-13T16:31:35;25.20;94.90
16301;DHT22;8258;51.020;4.248;2023-07-13T16:34:02;25.00;92.70
16301;DHT22;8258;51.020;4.248;2023-07-13T16:36:29;24.80;93.70
16301;DHT22;8258;51.020;4.248;2023-07-13T16:38:57;24.80;92.80
16301;DHT22;8258;51.020;4.248;2023-07-13T16:41:25;24.80;93.90
16301;DHT22;8258;51.020;4.248;2023-07-13T16:43:52;24.80;95.50
16301;DHT22;8258;51.020;4.248;2023-07-13T16:46:22;24.80;97.10
16301;DHT22;8258;51.020;4.248;2023-07-13T16:48:51;24.90;96.50
16301;DHT22;8258;51.020;4.248;2023-07-13T16:51:18;24.90;95.80
16301;DHT22;8258;51.020;4.248;2023-07-13T16:53:45;24.90;98.50
16301;DHT22;8258;51.020;4.248;2023-07-13T16:56:15;24.70;97.60
16301;DHT22;8258;51.020;4.248;2023-07-13T16:58:44;24.50;97.20
16301;DHT22;8258;51.020;4.248;2023-07-13T17:01:12;24.30;97.80
16301;DHT22;8258;51.020;4.248;2023-07-13T17:03:39;24.30;98.70
16301;DHT22;8258;51.020;4.248;2023-07-13T17:06:20;24.40;98.90
16301;DHT22;8258;51.020;4.248;2023-07-13T17:08:50;24.50;97.30
16301;DHT22;8258;51.020;4.248;2023-07-13T17:11:19;24.50;96.10
16301;DHT22;8258;51.020;4.248;2023-07-13T17:13:47;24.60;96.00